Terminal Aerodrome Forecast
Issued by NWS Sterling, VA

Current Version | Previous Version | Text Only | Print | Product List | Glossary Off
Versions: 1 2 3 4 5 6 7 8 9 10 11 12 13 14 15 16 17 18 19 20

000
FTUS41 KLWX 271700
TAFIAD
TAF
KIAD 271731Z 2718/2824 25004KT P6SM SCT045
     FM280000 26004KT P6SM BKN050
     FM280800 34008KT P6SM FEW025 FEW100
     FM281700 35010KT P6SM FEW050=

USA.gov is the U.S. government's official web portal to all federal, state and local government web resources and services.